Time;durP1;ratioP1;P1;durP2;ratioP2;P2;SDS_P1;SDS_P2;PMS_P1;PMS_P2;Temp;Humidity;BMP_temperature;BMP_pressure;BME280_temperature;BME280_humidity;BME280_pressure;Samples;Min_cycle;Max_cycle;Signal;HPM_P1;HPM_P2
2023/09/05 00:00:30;;;;;;;2.92;1.75;;;18.10;82.10;;;16.91;65.70;100947.97;10318489;28;96492;-88
2023/09/05 00:05:33;;;;;;;3.13;2.00;;;18.00;82.90;;;16.84;65.96;100942.53;10317214;28;97272;-88
2023/09/05 00:10:37;;;;;;;4.30;2.10;;;17.90;82.60;;;16.78;66.55;100935.25;10303034;28;96606;-89
2023/09/05 00:15:40;;;;;;;2.65;2.10;;;17.90;83.00;;;16.72;66.62;100918.06;10294652;28;96686;-87
2023/09/05 00:20:46;;;;;;;3.15;2.20;;;17.90;83.20;;;16.85;66.86;100926.28;10301683;28;96887;-87
2023/09/05 00:25:49;;;;;;;2.22;1.80;;;17.90;83.10;;;16.97;66.60;100909.63;10338651;28;96609;-86
2023/09/05 00:30:53;;;;;;;4.05;2.10;;;18.00;83.10;;;17.08;66.28;100901.88;10301629;28;97495;-87
2023/09/05 00:35:57;;;;;;;3.53;1.80;;;18.10;82.90;;;17.08;66.18;100884.94;10302030;28;96615;-87
2023/09/05 00:41:02;;;;;;;2.78;2.05;;;18.20;83.00;;;17.15;66.06;100893.06;10319598;28;96611;-87
2023/09/05 00:46:06;;;;;;;4.03;2.30;;;18.20;83.00;;;17.19;65.93;100891.66;10315407;28;96524;-87
2023/09/05 00:51:10;;;;;;;3.47;2.22;;;18.30;82.80;;;17.26;65.43;100887.16;10320366;28;96651;-88
2023/09/05 00:56:14;;;;;;;3.53;2.17;;;18.30;82.70;;;17.25;65.56;100891.69;10315650;28;97929;-87
2023/09/05 01:01:17;;;;;;;3.22;2.08;;;18.30;82.70;;;17.27;65.41;100883.44;10312267;28;97461;-88
2023/09/05 01:06:33;;;;;;;3.40;2.30;;;18.40;82.60;;;17.33;65.19;100883.53;10290438;28;96859;-88
2023/09/05 01:11:37;;;;;;;3.50;1.95;;;18.40;82.50;;;17.32;64.99;100876.47;10300306;28;96862;-87
2023/09/05 01:16:44;;;;;;;2.88;1.98;;;18.40;82.40;;;17.37;65.03;100875.88;10300708;28;97796;-88
2023/09/05 01:22:18;;;;;;;3.38;2.25;;;18.40;82.40;;;17.34;65.06;100887.88;10304282;28;96447;-88
2023/09/05 01:27:27;;;;;;;4.35;2.38;;;18.40;82.40;;;17.30;64.55;100878.53;10314917;28;97567;-88
2023/09/05 01:32:30;;;;;;;3.22;1.90;;;18.40;82.40;;;17.31;64.81;100880.19;10317036;28;96490;-87
2023/09/05 01:37:34;;;;;;;3.25;1.98;;;18.40;82.40;;;17.29;65.03;100889.47;10318894;28;97705;-87
2023/09/05 01:42:38;;;;;;;3.28;2.22;;;18.40;82.40;;;17.30;64.74;100883.06;10315138;28;96794;-87
2023/09/05 01:47:45;;;;;;;2.92;2.22;;;18.40;82.40;;;17.30;64.87;100889.28;10314067;28;98924;-87
2023/09/05 01:52:49;;;;;;;3.78;2.22;;;18.40;82.40;;;17.26;64.95;100882.63;10301589;28;97469;-88
2023/09/05 01:57:53;;;;;;;2.67;2.10;;;18.40;82.50;;;17.22;64.85;100881.38;10327075;28;96866;-88
2023/09/05 02:02:56;;;;;;;3.47;1.98;;;18.40;82.60;;;17.19;64.98;100887.13;10291382;28;97207;-88
2023/09/05 02:08:00;;;;;;;2.55;1.92;;;18.30;82.60;;;17.12;65.04;100876.31;10299949;28;96731;-87
2023/09/05 02:13:04;;;;;;;3.47;2.30;;;18.30;82.70;;;17.06;65.35;100871.72;10316392;28;96660;-87
2023/09/05 02:18:10;;;;;;;3.17;2.10;;;18.20;82.80;;;16.98;65.73;100881.78;10313323;28;98740;-87
2023/09/05 02:23:14;;;;;;;3.30;2.53;;;18.10;82.90;;;16.92;65.73;100877.19;10317679;28;96610;-88
2023/09/05 02:28:18;;;;;;;2.97;2.15;;;18.00;83.00;;;16.85;65.72;100869.03;10293634;28;97366;-87
2023/09/05 02:33:23;;;;;;;3.45;2.00;;;18.00;83.00;;;16.85;65.85;100880.63;10299238;28;98311;-87
2023/09/05 02:38:28;;;;;;;3.28;1.73;;;18.00;83.10;;;16.84;65.89;100881.63;10301092;28;96551;-88
2023/09/05 02:43:33;;;;;;;3.47;1.80;;;18.00;83.30;;;16.84;65.72;100878.94;10277224;28;96763;-88
2023/09/05 02:48:39;;;;;;;2.88;2.00;;;18.00;83.10;;;16.85;65.87;100877.09;10285295;28;97777;-87
2023/09/05 02:53:43;;;;;;;4.22;1.95;;;18.00;83.10;;;16.92;65.23;100893.28;10314809;28;96615;-88
2023/09/05 02:58:48;;;;;;;2.45;1.75;;;18.00;82.90;;;16.97;64.95;100889.00;10331523;28;96972;-87
2023/09/05 03:03:52;;;;;;;3.22;2.38;;;18.00;82.70;;;17.04;64.15;100889.06;10300571;28;97190;-88
2023/09/05 03:08:56;;;;;;;4.18;1.70;;;18.10;82.40;;;17.09;64.03;100890.16;10314680;28;97354;-87
2023/09/05 03:14:01;;;;;;;2.70;2.03;;;18.20;82.20;;;17.12;63.79;100878.19;10299609;28;96642;-87
2023/09/05 03:19:06;;;;;;;3.20;1.92;;;18.20;82.00;;;17.16;63.26;100886.69;10310284;28;97404;-89
2023/09/05 03:24:10;;;;;;;3.20;1.77;;;18.30;81.80;;;17.19;63.41;100892.47;10315545;28;96606;-88
2023/09/05 03:29:14;;;;;;;2.65;1.85;;;18.30;81.60;;;17.19;63.55;100903.22;10313102;28;96673;-88
2023/09/05 03:34:17;;;;;;;2.90;1.90;;;18.30;81.60;;;17.17;63.46;100897.22;10289935;28;96770;-88
2023/09/05 03:39:21;;;;;;;2.67;1.90;;;18.30;82.00;;;17.11;63.12;100890.78;10297220;28;96620;-88
2023/09/05 03:44:25;;;;;;;2.97;1.90;;;18.30;81.50;;;17.13;63.23;100901.31;10314010;28;96557;-88
2023/09/05 03:49:30;;;;;;;3.17;2.10;;;18.30;81.60;;;17.09;63.37;100897.34;10309342;28;96661;-87
2023/09/05 03:54:33;;;;;;;2.92;1.98;;;18.20;81.60;;;17.06;63.50;100903.94;10294973;28;96695;-88
2023/09/05 03:59:37;;;;;;;4.55;1.77;;;18.20;81.60;;;17.07;63.61;100915.50;10313547;28;96599;-87
2023/09/05 04:04:41;;;;;;;5.95;2.33;;;18.20;81.60;;;17.03;63.72;100919.59;10300407;28;97478;-87
2023/09/05 04:09:47;;;;;;;2.35;1.95;;;18.20;81.80;;;16.98;63.91;100922.06;10275203;28;98599;-87
2023/09/05 04:14:50;;;;;;;4.03;2.20;;;18.10;81.90;;;16.94;64.17;100915.41;10275373;28;98652;-88
2023/09/05 04:19:54;;;;;;;4.22;2.50;;;18.10;82.00;;;16.90;64.34;100936.41;10273448;28;98410;-87
2023/09/05 04:24:58;;;;;;;3.15;2.10;;;18.10;82.10;;;16.85;64.50;100917.34;10272641;28;99271;-88
2023/09/05 04:30:03;;;;;;;4.78;2.70;;;18.00;82.30;;;16.82;64.93;100928.50;10270260;28;96603;-88
2023/09/05 04:35:07;;;;;;;4.03;2.13;;;18.00;82.60;;;16.76;65.23;100931.94;10284452;28;96740;-86
2023/09/05 04:40:11;;;;;;;3.80;1.98;;;18.00;82.70;;;16.77;65.52;100936.28;10292030;28;96640;-86
2023/09/05 04:45:15;;;;;;;3.80;2.40;;;18.00;82.90;;;16.80;65.66;100942.13;10293188;28;96836;-86
2023/09/05 04:50:19;;;;;;;3.17;1.77;;;17.90;83.20;;;16.81;65.79;100951.81;10272626;28;96669;-86
2023/09/05 04:55:23;;;;;;;3.20;1.98;;;17.90;83.40;;;16.83;66.35;100948.94;10294328;28;96666;-86
2023/09/05 05:00:27;;;;;;;3.78;2.38;;;17.90;83.40;;;16.88;66.25;100948.38;10277688;28;96619;-85
2023/09/05 05:05:30;;;;;;;3.80;2.08;;;18.00;83.90;;;16.88;66.45;100948.38;10296934;28;96672;-87
2023/09/05 05:10:38;;;;;;;2.97;1.90;;;18.00;84.20;;;16.88;66.95;100938.47;10318270;28;96689;-88
2023/09/05 05:15:45;;;;;;;4.50;1.88;;;18.00;84.40;;;17.06;66.53;100951.44;10314920;28;96772;-87
2023/09/05 05:20:50;;;;;;;4.05;2.25;;;18.20;84.50;;;17.14;66.83;100943.25;10307155;28;96670;-88
2023/09/05 05:25:59;;;;;;;3.42;2.03;;;18.20;84.60;;;17.28;66.26;100950.44;10309708;28;98646;-87
2023/09/05 05:31:02;;;;;;;2.70;1.85;;;18.30;84.20;;;17.44;66.30;100951.97;10295521;28;97775;-88
2023/09/05 05:36:06;;;;;;;5.25;2.30;;;18.50;84.30;;;17.58;65.81;100950.25;10303244;28;96919;-87
2023/09/05 05:41:11;;;;;;;3.40;2.00;;;18.60;83.90;;;17.70;65.17;100948.69;10298977;28;98579;-87
2023/09/05 05:46:18;;;;;;;4.40;2.25;;;18.70;83.60;;;17.83;64.80;100947.97;10316757;28;96640;-88
2023/09/05 05:51:22;;;;;;;2.55;1.75;;;18.90;83.30;;;17.95;64.60;100950.94;10314178;28;96947;-88
2023/09/05 05:56:26;;;;;;;2.20;1.75;;;19.00;83.10;;;18.08;64.82;100942.94;10321843;28;96653;-88
2023/09/05 06:01:32;;;;;;;3.08;1.90;;;19.10;83.10;;;18.16;62.85;100940.06;10319890;28;96619;-88
2023/09/05 06:06:36;;;;;;;8.90;2.30;;;19.20;82.20;;;18.28;61.99;100941.16;10301228;28;96591;-88
2023/09/05 06:11:39;;;;;;;3.28;2.20;;;19.40;81.30;;;18.37;61.47;100945.34;10296915;28;96511;-88
2023/09/05 06:16:49;;;;;;;3.38;2.13;;;19.50;80.80;;;18.54;61.94;100950.41;10299403;28;97979;-88
2023/09/05 06:21:53;;;;;;;2.70;1.90;;;19.60;81.00;;;18.69;60.40;100945.69;10301228;28;96594;-88
2023/09/05 06:26:56;;;;;;;2.72;1.80;;;19.80;80.40;;;18.74;60.29;100937.84;10332107;28;96666;-87
2023/09/05 06:32:00;;;;;;;3.65;1.88;;;19.90;79.80;;;18.92;60.08;100943.47;10295761;28;96808;-88
2023/09/05 06:37:04;;;;;;;3.10;1.98;;;20.00;79.70;;;19.06;59.37;100941.63;10301077;28;96485;-89
2023/09/05 06:42:08;;;;;;;3.30;2.20;;;20.20;79.20;;;19.22;59.14;100953.88;10304477;28;97082;-88
2023/09/05 06:47:11;;;;;;;3.58;2.20;;;20.30;79.00;;;19.38;57.78;100952.66;10314109;28;96584;-88
2023/09/05 06:52:15;;;;;;;2.45;1.90;;;20.40;77.80;;;19.51;56.92;100953.47;10310202;28;96560;-88
2023/09/05 06:57:20;;;;;;;3.22;1.70;;;20.60;77.20;;;19.67;57.03;100957.66;10327618;28;98360;-88
2023/09/05 07:02:23;;;;;;;2.90;2.10;;;20.70;77.10;;;19.88;56.55;100963.84;10298059;28;97167;-87
2023/09/05 07:07:27;;;;;;;2.97;1.90;;;20.90;76.90;;;20.04;55.75;100948.03;10319923;28;96934;-89
2023/09/05 07:12:30;;;;;;;4.35;1.83;;;21.10;76.10;;;20.22;55.24;100954.63;10292566;28;96621;-88
2023/09/05 07:17:34;;;;;;;4.00;2.38;;;21.30;75.70;;;20.30;53.65;100943.56;10298259;28;96705;-89
2023/09/05 07:22:37;;;;;;;4.15;2.50;;;21.50;74.60;;;20.49;53.88;100958.88;10298021;28;97478;-88
2023/09/05 07:27:41;;;;;;;3.83;2.05;;;21.60;74.40;;;20.66;54.71;100961.09;10333418;28;96732;-88
2023/09/05 07:32:45;;;;;;;3.63;2.00;;;21.80;74.70;;;20.78;53.26;100954.78;10280767;28;96798;-88
2023/09/05 07:37:48;;;;;;;2.83;1.88;;;22.00;73.70;;;20.96;52.74;100954.06;10316170;28;97028;-89
2023/09/05 07:42:53;;;;;;;4.03;2.13;;;22.10;73.40;;;21.14;52.46;100957.91;10293704;28;97522;-89
2023/09/05 07:47:56;;;;;;;3.08;1.88;;;22.30;73.20;;;21.29;51.78;100961.13;10298617;28;96568;-89
2023/09/05 07:53:00;;;;;;;2.72;1.85;;;22.50;72.70;;;21.44;52.12;100958.94;10296819;28;96811;-89
2023/09/05 07:58:04;;;;;;;3.15;1.85;;;22.60;72.60;;;21.61;51.89;100965.44;10316263;28;96624;-88
2023/09/05 08:03:08;;;;;;;3.28;1.85;;;22.70;72.50;;;21.80;51.85;100957.38;10300738;28;97442;-89
2023/09/05 08:08:12;;;;;;;4.93;2.08;;;22.90;72.60;;;21.96;50.89;100956.78;10298142;28;97747;-89
2023/09/05 08:13:16;;;;;;;3.03;1.90;;;23.10;71.60;;;21.97;49.97;100952.19;10300491;28;96659;-87
2023/09/05 08:18:20;;;;;;;4.15;2.22;;;23.20;70.50;;;21.99;50.39;100942.78;10313882;28;99749;-88
2023/09/05 08:23:24;;;;;;;3.78;2.42;;;23.20;70.70;;;22.08;49.01;100949.56;10330964;28;96611;-87
2023/09/05 08:28:35;;;;;;;3.90;2.28;;;23.30;69.50;;;22.15;48.31;100942.22;10334968;28;96766;-87
2023/09/05 08:33:39;;;;;;;4.95;2.30;;;23.30;68.90;;;22.39;47.34;100942.38;10332796;28;96677;-88
2023/09/05 08:38:43;;;;;;;3.40;2.22;;;23.50;68.60;;;22.54;47.28;100940.06;10300988;28;96749;-88
2023/09/05 08:43:46;;;;;;;4.38;1.90;;;23.70;67.80;;;22.59;45.92;100942.91;10304369;28;96583;-88
2023/09/05 08:48:50;;;;;;;3.83;2.10;;;23.70;66.60;;;22.66;47.13;100926.56;10302822;28;96612;-89
2023/09/05 08:54:03;;;;;;;4.57;2.30;;;23.80;68.10;;;22.83;46.36;100929.47;10326076;28;97029;-89
2023/09/05 08:59:08;;;;;;;3.35;2.13;;;24.00;66.80;;;22.80;45.95;100927.22;10319590;28;96666;-89
2023/09/05 09:04:13;;;;;;;3.47;1.98;;;24.00;65.90;;;22.98;45.89;100932.63;10301981;28;96561;-87
2023/09/05 09:09:41;;;;;;;3.80;2.08;;;24.20;66.10;;;23.12;45.08;100925.91;10315851;28;98382;-87
2023/09/05 09:14:44;;;;;;;4.38;2.35;;;24.30;65.20;;;23.12;45.56;100915.06;10291631;28;98257;-87
2023/09/05 09:19:48;;;;;;;2.83;2.03;;;24.30;65.50;;;23.12;45.42;100900.69;10317500;28;96641;-89
2023/09/05 09:24:51;;;;;;;2.28;1.70;;;24.30;65.40;;;23.25;45.48;100895.06;10302455;28;98893;-88
2023/09/05 09:29:55;;;;;;;2.55;1.60;;;24.40;65.30;;;23.47;44.85;100879.03;10297257;28;98242;-88
2023/09/05 09:34:59;;;;;;;3.65;1.80;;;24.60;65.00;;;23.59;44.50;100874.41;10272547;28;96787;-88
2023/09/05 09:40:05;;;;;;;3.53;1.77;;;24.80;64.70;;;23.74;43.94;100877.47;10300877;28;98491;-88
2023/09/05 09:45:09;;;;;;;2.40;1.60;;;25.00;64.10;;;23.92;43.87;100881.13;10303613;28;96618;-88
2023/09/05 09:50:13;;;;;;;2.53;1.52;;;25.20;63.90;;;24.22;44.17;100883.63;10330868;28;97581;-89
2023/09/05 09:55:19;;;;;;;3.92;1.70;;;25.40;64.00;;;24.27;43.61;100868.25;10313346;28;97460;-88
2023/09/05 10:00:24;;;;;;;2.70;1.80;;;25.50;63.50;;;24.47;42.81;100886.03;10293398;28;97378;-88
2023/09/05 10:05:32;;;;;;;4.50;1.90;;;25.70;63.10;;;24.69;42.94;100878.84;10302942;28;96776;-88
2023/09/05 10:10:40;;;;;;;2.70;1.60;;;25.90;62.70;;;24.77;41.84;100862.16;10317102;28;96859;-89
2023/09/05 10:15:47;;;;;;;2.40;1.70;;;26.00;62.00;;;24.75;42.99;100864.28;10313352;28;96685;-88
2023/09/05 10:20:52;;;;;;;2.42;1.45;;;26.00;62.70;;;24.94;42.52;100853.16;10315475;28;96559;-88
2023/09/05 10:25:57;;;;;;;2.45;1.70;;;26.20;62.70;;;25.11;41.92;100843.16;10300900;28;96501;-87
2023/09/05 10:31:13;;;;;;;1.98;1.55;;;26.40;62.00;;;25.12;41.95;100850.22;10315056;28;96750;-87
2023/09/05 10:36:42;;;;;;;4.32;1.92;;;26.40;61.60;;;25.25;41.66;100846.34;10314572;28;97249;-89
2023/09/05 10:41:46;;;;;;;3.20;1.52;;;26.40;61.70;;;25.28;41.50;100841.22;10293493;28;96593;-88
2023/09/05 10:46:54;;;;;;;2.78;1.60;;;26.50;61.30;;;25.33;41.64;100827.72;10314559;28;96652;-89
2023/09/05 10:52:21;;;;;;;4.50;1.88;;;26.60;61.20;;;25.40;40.10;100813.09;10314085;28;97080;-88
2023/09/05 10:57:36;;;;;;;3.72;2.15;;;26.70;59.60;;;25.22;41.76;100831.34;10317977;28;96561;-87
2023/09/05 11:02:45;;;;;;;2.80;2.03;;;26.50;60.90;;;25.07;41.59;100829.25;10296953;28;96671;-87
2023/09/05 11:07:50;;;;;;;2.03;1.70;;;26.40;61.10;;;25.09;42.56;100820.81;10314306;28;97686;-88
2023/09/05 11:12:55;;;;;;;2.72;1.83;;;26.40;61.50;;;25.31;42.65;100813.53;10314717;28;96598;-88
2023/09/05 11:18:05;;;;;;;5.30;1.98;;;26.60;61.90;;;25.58;41.94;100820.97;10291903;28;97691;-89
2023/09/05 11:23:12;;;;;;;;;;;26.80;61.50;;;25.95;42.36;100820.38;10334237;28;96438;-88
2023/09/05 11:28:16;;;;;;;2.78;1.88;;;27.10;62.10;;;26.03;41.06;100822.63;10333518;28;96735;-88
2023/09/05 11:33:20;;;;;;;2.42;1.55;;;27.30;60.40;;;25.93;40.58;100820.63;10315286;28;98864;-87
2023/09/05 11:38:25;;;;;;;5.13;1.90;;;27.30;60.00;;;25.78;41.69;100810.34;10310368;28;97469;-88
2023/09/05 11:43:33;;;;;;;2.97;1.90;;;27.10;60.70;;;25.54;40.94;100806.22;10289233;28;96872;-88
2023/09/05 11:48:37;;;;;;;2.20;1.70;;;26.90;60.00;;;25.49;41.62;100806.13;10275344;28;96406;-88
2023/09/05 11:53:46;;;;;;;2.33;1.75;;;26.80;60.60;;;25.66;41.92;100793.31;10295078;28;98030;-89
2023/09/05 11:58:51;;;;;;;3.58;1.90;;;27.00;61.10;;;25.76;41.79;100792.66;10316037;28;96750;-89
2023/09/05 12:04:05;;;;;;;2.35;1.60;;;27.00;60.90;;;25.94;41.25;100783.31;10338060;28;96639;-88
2023/09/05 12:09:09;;;;;;;4.70;1.70;;;27.20;60.50;;;26.07;40.76;100789.19;10306173;28;96736;-88
2023/09/05 12:14:16;;;;;;;3.25;1.60;;;27.40;60.00;;;25.89;40.07;100793.06;10304086;28;96631;-87
2023/09/05 12:19:27;;;;;;;2.13;1.50;;;27.20;59.30;;;25.68;40.76;100793.06;10322660;28;96581;-88
2023/09/05 12:24:31;;;;;;;2.33;1.60;;;27.00;59.80;;;25.88;41.12;100764.22;10321593;28;96676;-89
2023/09/05 12:29:40;;;;;;;3.85;1.83;;;27.10;60.20;;;26.20;40.23;100773.50;10303672;28;96644;-90
2023/09/05 12:34:43;;;;;;;3.92;1.60;;;27.40;59.80;;;26.15;39.39;100777.84;10309066;28;96496;-89
2023/09/05 12:39:50;;;;;;;2.20;1.45;;;27.40;59.10;;;26.03;40.63;100769.00;10287239;28;96671;-89
2023/09/05 12:44:54;;;;;;;3.67;1.92;;;27.20;59.60;;;26.01;40.32;100760.25;10318948;28;97310;-89
2023/09/05 12:50:00;;;;;;;2.90;1.50;;;27.20;59.40;;;26.05;39.66;100763.31;10296487;28;96835;-89
2023/09/05 12:55:15;;;;;;;3.25;1.90;;;27.40;58.90;;;25.96;40.19;100762.91;10310143;28;96993;-88
2023/09/05 13:00:19;;;;;;;4.38;1.70;;;27.30;58.70;;;26.03;40.42;100757.25;10266129;28;96686;-88
2023/09/05 13:05:24;;;;;;;4.05;1.60;;;27.30;59.20;;;25.96;40.54;100756.66;10312743;28;97108;-88
2023/09/05 13:10:28;;;;;;;2.30;1.77;;;27.20;59.40;;;25.78;40.01;100758.63;10304580;28;97415;-89
2023/09/05 13:15:32;;;;;;;4.07;1.40;;;27.10;58.80;;;25.71;40.49;100751.72;10337542;28;96579;-89
2023/09/05 13:20:35;;;;;;;3.25;1.50;;;26.90;59.30;;;25.64;40.28;100743.75;10319785;28;96494;-88
2023/09/05 13:25:40;;;;;;;3.13;1.55;;;26.90;59.40;;;25.65;41.18;100734.50;10315325;28;98221;-89
2023/09/05 13:30:44;;;;;;;2.05;1.55;;;26.80;60.10;;;25.70;41.22;100722.88;10324511;28;96556;-90
2023/09/05 13:35:48;;;;;;;3.13;1.60;;;26.90;60.20;;;25.81;40.69;100733.66;10302798;28;96732;-87
2023/09/05 13:40:52;;;;;;;2.63;1.50;;;26.90;59.70;;;25.79;40.32;100741.25;10290080;28;96665;-88
2023/09/05 13:45:55;;;;;;;3.22;1.90;;;26.90;59.10;;;25.71;40.17;100741.66;10296389;28;97495;-88
2023/09/05 13:50:59;;;;;;;2.67;1.50;;;26.90;59.20;;;25.60;40.63;100734.44;10303287;28;96715;-88
2023/09/05 13:56:04;;;;;;;2.00;1.40;;;26.80;59.60;;;25.66;40.45;100736.16;10311622;28;98048;-89
2023/09/05 14:01:09;;;;;;;2.78;1.60;;;27.00;59.30;;;25.67;40.25;100726.09;10308056;28;97574;-89
2023/09/05 14:06:15;;;;;;;2.55;1.52;;;27.00;59.40;;;25.80;40.99;100733.91;10335062;28;97027;-90
2023/09/05 14:11:18;;;;;;;2.28;1.30;;;27.00;59.70;;;25.92;40.73;100734.56;10298300;28;97003;-88
2023/09/05 14:16:22;;;;;;;2.78;1.50;;;27.10;59.50;;;25.95;40.35;100725.06;10304487;28;96651;-89
2023/09/05 14:21:26;;;;;;;1.95;1.40;;;27.20;59.40;;;25.96;40.74;100729.41;10316893;28;98654;-90
2023/09/05 14:26:30;;;;;;;5.53;1.40;;;27.20;59.30;;;25.80;40.61;100734.72;10299449;28;97521;-89
2023/09/05 14:31:34;;;;;;;2.70;1.38;;;27.00;59.20;;;25.77;41.48;100737.94;10292440;28;97176;-90
2023/09/05 14:36:39;;;;;;;1.95;1.45;;;26.90;59.80;;;26.03;40.81;100728.16;10297359;28;97472;-89
2023/09/05 14:41:43;;;;;;;2.60;1.40;;;27.30;59.60;;;26.52;40.48;100719.91;10316112;28;96643;-90
2023/09/05 14:46:47;;;;;;;2.92;1.48;;;28.00;59.40;;;27.10;39.82;100703.63;10297790;28;98291;-90
2023/09/05 14:51:50;;;;;;;2.05;1.30;;;28.80;58.40;;;27.37;38.67;100717.97;10313253;28;99133;-89
2023/09/05 14:56:55;;;;;;;3.53;1.70;;;29.00;57.30;;;26.95;39.54;100710.63;10298410;28;96847;-87
2023/09/05 15:01:59;;;;;;;2.47;1.50;;;28.60;57.30;;;26.88;39.51;100712.78;10314027;28;96787;-89
2023/09/05 15:07:05;;;;;;;2.58;1.70;;;28.40;57.80;;;26.51;40.03;100709.22;10299267;28;96683;-89
2023/09/05 15:12:10;;;;;;;2.50;1.70;;;28.00;58.10;;;26.15;40.60;100717.09;10332553;28;96508;-89
2023/09/05 15:17:14;;;;;;;4.97;1.55;;;27.60;58.60;;;25.98;41.05;100706.31;10298304;28;99021;-88
2023/09/05 15:22:18;;;;;;;2.25;1.58;;;27.40;59.60;;;26.60;40.74;100716.69;10283319;28;96610;-89
2023/09/05 15:27:22;;;;;;;1.80;1.15;;;28.10;59.40;;;27.38;39.77;100714.16;10295127;28;96838;-89
2023/09/05 15:32:26;;;;;;;2.92;1.60;;;29.10;58.50;;;28.04;38.71;100709.97;10315655;28;96513;-88
2023/09/05 15:37:30;;;;;;;1.95;1.50;;;29.90;57.30;;;28.12;38.07;100712.97;10313939;28;96912;-88
2023/09/05 15:42:34;;;;;;;2.13;1.30;;;29.90;56.30;;;27.72;38.15;100708.28;10314180;28;98228;-88
2023/09/05 15:47:37;;;;;;;2.08;1.45;;;29.40;56.30;;;27.32;39.06;100709.75;10298455;28;97668;-89
2023/09/05 15:52:41;;;;;;;3.95;1.60;;;28.90;57.50;;;26.78;39.70;100711.91;10304345;28;96606;-89
2023/09/05 15:57:45;;;;;;;2.88;1.63;;;28.30;58.20;;;26.36;40.17;100709.91;10311837;28;97451;-89
2023/09/05 16:02:49;;;;;;;4.70;1.80;;;27.80;58.30;;;26.19;40.76;100725.56;10294642;28;96729;-89
2023/09/05 16:07:54;;;;;;;2.47;1.33;;;27.60;59.30;;;26.05;41.24;100723.28;10294719;28;96824;-89
2023/09/05 16:12:58;;;;;;;3.05;1.60;;;27.40;59.60;;;25.87;41.62;100716.28;10331998;28;97317;-89
2023/09/05 16:18:01;;;;;;;3.85;1.60;;;27.20;59.80;;;25.78;42.42;100715.09;10293355;28;96656;-88
2023/09/05 16:23:05;;;;;;;2.55;1.48;;;27.00;60.80;;;25.67;43.06;100718.75;10313326;28;96777;-89
2023/09/05 16:28:09;;;;;;;4.70;1.80;;;26.90;61.50;;;25.46;43.62;100727.75;10272160;28;96695;-89
2023/09/05 16:33:13;;;;;;;3.85;1.70;;;26.60;61.50;;;25.14;44.45;100711.31;10312412;28;98752;-89
2023/09/05 16:38:17;;;;;;;8.18;2.13;;;26.40;62.80;;;24.98;45.16;100723.84;10298941;28;96635;-87
2023/09/05 16:43:21;;;;;;;4.05;2.13;;;26.20;63.00;;;24.77;45.52;100720.81;10317540;28;97575;-88
2023/09/05 16:48:26;;;;;;;3.40;1.88;;;25.90;63.60;;;24.53;46.29;100722.91;10334160;28;96643;-88
2023/09/05 16:53:30;;;;;;;4.65;2.10;;;25.70;64.40;;;24.30;47.17;100729.28;10339635;28;97342;-88
2023/09/05 16:58:34;;;;;;;3.03;2.03;;;25.40;65.20;;;24.03;47.90;100729.06;10325131;28;99015;-89
2023/09/05 17:03:37;;;;;;;3.13;2.08;;;25.10;65.90;;;23.76;48.72;100734.28;10293883;28;96710;-89
2023/09/05 17:08:41;;;;;;;4.53;2.10;;;24.80;66.80;;;23.52;49.68;100740.81;10315585;28;96661;-88
2023/09/05 17:13:45;;;;;;;3.78;2.60;;;24.50;67.80;;;23.22;50.87;100741.81;10291675;28;96635;-88
2023/09/05 17:18:48;;;;;;;4.85;2.55;;;24.30;68.90;;;22.98;51.68;100751.03;10290895;28;96824;-88
2023/09/05 17:23:52;;;;;;;6.63;2.28;;;24.00;69.80;;;22.69;52.89;100750.88;10284530;28;96563;-88
2023/09/05 17:28:56;;;;;;;5.85;3.05;;;23.70;70.70;;;22.43;53.51;100749.44;10302067;28;96799;-88
2023/09/05 17:34:01;;;;;;;4.03;2.40;;;23.40;71.40;;;22.18;54.52;100765.00;10316229;28;97517;-88
2023/09/05 17:39:07;;;;;;;5.68;2.58;;;23.10;72.00;;;21.87;54.96;100749.78;10312218;28;98339;-88
2023/09/05 17:44:10;;;;;;;5.97;2.95;;;22.90;72.60;;;21.70;55.75;100754.19;10319024;28;96720;-88
2023/09/05 17:49:14;;;;;;;3.53;2.42;;;22.70;73.20;;;21.52;56.44;100774.78;10290322;28;96733;-88
2023/09/05 17:54:19;;;;;;;6.15;2.30;;;22.50;73.60;;;21.37;57.18;100772.44;10297546;28;96683;-88
2023/09/05 17:59:23;;;;;;;2.60;2.25;;;22.30;74.10;;;21.23;57.35;100783.59;10304973;28;96558;-88
2023/09/05 18:04:27;;;;;;;4.05;2.10;;;22.10;74.60;;;21.06;58.27;100784.19;10300359;28;98538;-88
2023/09/05 18:09:31;;;;;;;3.65;2.50;;;22.00;75.30;;;20.90;58.69;100789.31;10303076;28;96765;-88
2023/09/05 18:14:36;;;;;;;4.25;2.28;;;21.90;75.70;;;20.74;59.42;100798.78;10309930;28;99173;-88
2023/09/05 18:19:44;;;;;;;4.90;2.50;;;21.70;76.10;;;20.62;59.86;100797.84;10296766;28;97021;-88
2023/09/05 18:24:48;;;;;;;7.40;3.08;;;21.60;76.50;;;20.40;60.09;100792.78;10315862;28;96594;-88
2023/09/05 18:29:54;;;;;;;4.28;2.88;;;21.40;76.80;;;20.29;60.64;100793.50;10319549;28;98297;-89
2023/09/05 18:34:57;;;;;;;6.68;2.72;;;21.30;77.20;;;20.21;61.83;100808.06;10300483;28;96822;-89
2023/09/05 18:40:01;;;;;;;6.70;2.80;;;21.20;77.90;;;20.01;62.15;100805.47;10298077;28;98201;-88
2023/09/05 18:45:05;;;;;;;5.57;2.70;;;21.00;78.50;;;19.91;63.02;100815.03;10299413;28;96805;-88
2023/09/05 18:50:09;;;;;;;6.18;3.92;;;20.80;78.90;;;19.79;63.17;100820.28;10314318;28;97415;-87
2023/09/05 18:55:14;;;;;;;3.25;2.40;;;20.70;79.20;;;19.65;63.68;100811.41;10278486;28;96703;-88
2023/09/05 19:00:18;;;;;;;6.05;2.42;;;20.60;79.40;;;19.66;63.66;100825.72;10283039;28;96751;-88
2023/09/05 19:05:28;;;;;;;3.83;2.30;;;20.60;79.50;;;19.60;64.00;100815.78;10277016;28;96625;-87
2023/09/05 19:10:31;;;;;;;;;;;20.60;79.80;;;19.61;64.33;100828.22;10285872;28;98469;-88
2023/09/05 19:15:38;;;;;;;3.08;2.15;;;20.60;80.10;;;19.52;64.48;100817.66;10292380;28;97461;-88
2023/09/05 19:20:43;;;;;;;2.80;1.80;;;20.60;79.80;;;19.46;64.45;100820.38;10304358;28;96734;-88
2023/09/05 19:25:49;;;;;;;2.42;1.95;;;20.50;80.10;;;19.40;64.69;100821.19;10286556;28;98356;-88
2023/09/05 19:30:53;;;;;;;2.72;2.00;;;20.40;80.40;;;19.31;65.20;100817.91;10313791;28;97229;-87
2023/09/05 19:35:57;;;;;;;4.68;2.22;;;20.30;80.70;;;19.23;65.85;100834.28;10297020;28;96617;-88
2023/09/05 19:41:06;;;;;;;3.60;1.98;;;20.20;81.20;;;19.08;67.21;100826.44;10273260;28;96540;-88
2023/09/05 19:46:09;;;;;;;3.00;2.13;;;20.10;82.00;;;18.84;68.41;100830.59;10283933;28;96482;-88
2023/09/05 19:51:13;;;;;;;4.93;2.70;;;19.80;82.90;;;18.71;68.67;100846.69;10306322;28;96897;-88
2023/09/05 19:56:17;;;;;;;5.18;2.35;;;19.70;83.60;;;18.51;69.72;100832.38;10308840;28;97149;-88
2023/09/05 20:01:20;;;;;;;6.05;2.78;;;19.50;84.10;;;18.32;70.09;100837.50;10304664;28;97007;-88
2023/09/05 20:06:24;;;;;;;3.72;2.58;;;19.40;84.80;;;18.23;70.88;100849.47;10293283;28;96705;-89
2023/09/05 20:11:28;;;;;;;2.72;2.20;;;19.20;85.40;;;18.11;71.53;100851.94;10302295;28;96972;-89
2023/09/05 20:16:31;;;;;;;4.05;2.35;;;19.10;85.80;;;18.05;72.07;100851.88;10321553;28;96610;-89
2023/09/05 20:21:36;;;;;;;3.33;2.55;;;19.10;86.10;;;17.98;71.76;100849.16;10320647;28;97537;-89
2023/09/05 20:26:40;;;;;;;4.10;2.50;;;19.00;86.20;;;17.90;72.81;100846.66;10321520;28;96765;-90
2023/09/05 20:31:45;;;;;;;2.70;2.20;;;18.90;86.60;;;17.82;72.82;100844.16;10299762;28;96725;-90
2023/09/05 20:36:50;;;;;;;3.05;2.47;;;18.80;86.80;;;17.74;73.44;100847.81;10301474;28;98230;-90
2023/09/05 20:41:58;;;;;;;4.68;2.50;;;18.70;87.30;;;17.59;73.79;100844.41;10314842;28;96711;-89
2023/09/05 20:47:02;;;;;;;4.70;2.85;;;18.70;87.80;;;17.47;74.52;100838.75;10300792;28;96859;-89
2023/09/05 20:52:06;;;;;;;4.18;2.75;;;18.50;88.20;;;17.42;75.11;100848.44;10313698;28;96695;-89